createdAt,value
2024-04-26T00:02:19.060Z,99.90
2024-04-26T00:04:46.471Z,99.90
2024-04-26T00:07:13.831Z,99.90
2024-04-26T00:09:41.628Z,99.90
2024-04-26T00:12:09.204Z,99.90
2024-04-26T00:14:36.890Z,99.90
2024-04-26T00:17:04.506Z,99.90
2024-04-26T00:19:31.851Z,99.90
2024-04-26T00:21:59.224Z,99.90
2024-04-26T00:24:26.666Z,99.90
2024-04-26T00:26:54.094Z,99.90
2024-04-26T00:29:21.571Z,99.90
2024-04-26T00:31:48.887Z,99.90
2024-04-26T00:34:16.249Z,99.90
2024-04-26T00:36:43.670Z,99.90
2024-04-26T00:39:11.042Z,99.90
2024-04-26T00:41:38.568Z,99.90
2024-04-26T00:44:14.460Z,99.90
2024-04-26T00:46:44.919Z,99.90
2024-04-26T00:49:13.124Z,99.90
2024-04-26T00:51:42.075Z,99.90
2024-04-26T00:54:09.934Z,99.90
2024-04-26T00:56:38.797Z,99.90
2024-04-26T00:59:08.224Z,99.90
2024-04-26T01:01:36.003Z,99.90
2024-04-26T01:04:03.512Z,99.90
2024-04-26T01:06:30.945Z,99.90
2024-04-26T01:08:58.523Z,99.90
2024-04-26T01:11:26.927Z,99.90
2024-04-26T01:13:55.154Z,99.90
2024-04-26T01:16:22.425Z,99.90
2024-04-26T01:18:49.971Z,99.90
2024-04-26T01:21:18.423Z,99.90
2024-04-26T01:23:46.106Z,99.90
2024-04-26T01:26:13.438Z,99.90
2024-04-26T01:28:41.050Z,99.90
2024-04-26T01:31:08.518Z,99.90
2024-04-26T01:33:35.983Z,99.90
2024-04-26T01:36:04.042Z,99.90
2024-04-26T01:38:31.645Z,99.90
2024-04-26T01:40:59.024Z,99.90
2024-04-26T01:43:26.471Z,99.90
2024-04-26T01:45:54.180Z,99.90
2024-04-26T01:48:21.772Z,99.90
2024-04-26T01:50:49.356Z,99.90
2024-04-26T01:55:44.536Z,99.90
2024-04-26T01:58:11.906Z,99.90
2024-04-26T02:00:39.217Z,99.90
2024-04-26T02:03:06.869Z,99.90
2024-04-26T02:05:34.350Z,99.90
2024-04-26T02:08:01.777Z,99.90
2024-04-26T02:10:29.115Z,99.90
2024-04-26T02:12:57.179Z,99.90
2024-04-26T02:15:24.520Z,99.90
2024-04-26T02:17:52.071Z,99.90
2024-04-26T02:20:19.415Z,99.90
2024-04-26T02:22:46.819Z,99.90
2024-04-26T02:25:14.355Z,99.90
2024-04-26T02:27:41.950Z,99.90
2024-04-26T02:30:09.975Z,99.90
2024-04-26T02:32:37.656Z,99.90
2024-04-26T02:35:05.597Z,99.90
2024-04-26T02:37:32.938Z,99.90
2024-04-26T02:40:00.273Z,99.90
2024-04-26T02:42:27.965Z,99.90
2024-04-26T02:44:55.421Z,99.90
2024-04-26T02:47:22.930Z,99.90
2024-04-26T02:49:50.559Z,99.90
2024-04-26T02:52:17.988Z,99.90
2024-04-26T02:54:45.270Z,99.90
2024-04-26T02:57:13.491Z,99.90
2024-04-26T02:59:40.831Z,99.90
2024-04-26T03:02:08.191Z,99.90
2024-04-26T03:04:35.745Z,99.90
2024-04-26T03:07:03.275Z,99.90
2024-04-26T03:09:30.557Z,99.90
2024-04-26T03:14:28.692Z,99.90
2024-04-26T03:19:26.016Z,99.90
2024-04-26T03:21:53.470Z,99.90
2024-04-26T03:24:20.888Z,99.90
2024-04-26T03:26:48.406Z,99.90
2024-04-26T03:29:15.873Z,99.90
2024-04-26T03:31:43.238Z,99.90
2024-04-26T03:34:10.546Z,99.90
2024-04-26T03:36:38.030Z,99.90
2024-04-26T03:39:05.597Z,99.90
2024-04-26T03:41:33.084Z,99.90
2024-04-26T03:44:00.434Z,99.90
2024-04-26T03:46:27.702Z,99.90
2024-04-26T03:48:55.189Z,99.90
2024-04-26T03:51:22.691Z,99.90
2024-04-26T03:53:50.214Z,99.90
2024-04-26T03:56:19.104Z,99.90
2024-04-26T03:58:46.519Z,99.90
2024-04-26T04:01:14.007Z,99.90
2024-04-26T04:03:41.726Z,99.90
2024-04-26T04:06:09.389Z,99.90
2024-04-26T04:08:36.897Z,99.90
2024-04-26T04:11:04.540Z,99.90
2024-04-26T04:13:31.906Z,99.90
2024-04-26T04:15:59.398Z,99.90
2024-04-26T04:18:28.946Z,99.90
2024-04-26T04:20:56.554Z,99.90
2024-04-26T04:23:24.006Z,99.90
2024-04-26T04:25:51.635Z,99.90
2024-04-26T04:28:19.079Z,99.90
2024-04-26T04:30:46.511Z,99.90
2024-04-26T04:33:15.083Z,99.90
2024-04-26T04:35:42.750Z,99.90
2024-04-26T04:38:10.493Z,99.90
2024-04-26T04:40:37.897Z,99.90
2024-04-26T04:43:05.660Z,99.90
2024-04-26T04:45:33.046Z,99.90
2024-04-26T04:48:00.702Z,99.90
2024-04-26T04:50:28.303Z,99.90
2024-04-26T04:52:55.902Z,99.90
2024-04-26T04:55:23.276Z,99.90
2024-04-26T04:57:50.632Z,99.90
2024-04-26T05:00:18.164Z,99.90
2024-04-26T05:02:45.646Z,99.90
2024-04-26T05:05:13.084Z,99.90
2024-04-26T05:07:40.540Z,99.90
2024-04-26T05:10:08.169Z,99.90
2024-04-26T05:12:35.658Z,99.90
2024-04-26T05:15:04.366Z,99.90
2024-04-26T05:17:31.879Z,99.90
2024-04-26T05:19:59.540Z,99.90
2024-04-26T05:22:27.229Z,99.90
2024-04-26T05:24:54.586Z,99.90
2024-04-26T05:27:21.978Z,99.90
2024-04-26T05:29:49.646Z,99.90
2024-04-26T05:32:17.124Z,99.90
2024-04-26T05:34:47.381Z,99.90
2024-04-26T05:37:15.151Z,99.90
2024-04-26T05:39:42.778Z,99.90
2024-04-26T05:42:10.248Z,99.90
2024-04-26T05:44:37.800Z,99.90
2024-04-26T05:47:05.506Z,99.90
2024-04-26T05:49:32.963Z,99.90
2024-04-26T05:52:00.395Z,99.90
2024-04-26T05:54:27.835Z,99.90
2024-04-26T05:56:55.186Z,99.90
2024-04-26T05:59:22.563Z,99.90
2024-04-26T06:01:49.847Z,99.90
2024-04-26T06:04:17.452Z,99.90
2024-04-26T06:06:48.239Z,99.90
2024-04-26T06:09:16.230Z,99.90
2024-04-26T06:11:43.593Z,99.90
2024-04-26T06:14:10.905Z,99.90
2024-04-26T06:16:38.226Z,99.90
2024-04-26T06:19:05.773Z,99.90
2024-04-26T06:21:42.298Z,99.90
2024-04-26T06:24:09.989Z,99.90
2024-04-26T06:26:38.474Z,99.90
2024-04-26T06:29:07.073Z,99.90
2024-04-26T06:31:34.425Z,99.90
2024-04-26T06:34:01.984Z,99.90
2024-04-26T06:36:29.347Z,99.90
2024-04-26T06:38:56.737Z,99.90
2024-04-26T06:41:24.142Z,99.90
2024-04-26T06:43:56.876Z,99.90
2024-04-26T06:46:30.380Z,99.90
2024-04-26T06:48:58.132Z,99.90
2024-04-26T06:51:25.622Z,99.90
2024-04-26T06:53:53.073Z,99.90
2024-04-26T06:56:20.546Z,99.90
2024-04-26T06:58:47.910Z,99.90
2024-04-26T07:01:15.360Z,99.90
2024-04-26T07:03:42.858Z,99.90
2024-04-26T07:06:10.768Z,99.90
2024-04-26T07:08:38.196Z,99.90
2024-04-26T07:11:08.473Z,99.90
2024-04-26T07:13:35.796Z,99.90
2024-04-26T07:18:33.502Z,99.90
2024-04-26T07:21:00.990Z,99.90
2024-04-26T07:23:28.386Z,99.90
2024-04-26T07:25:57.792Z,99.90
2024-04-26T07:28:25.150Z,99.90
2024-04-26T07:30:52.475Z,99.90
2024-04-26T07:33:27.013Z,99.90
2024-04-26T07:35:54.870Z,99.90
2024-04-26T07:38:22.372Z,99.90
2024-04-26T07:40:49.670Z,99.90
2024-04-26T07:43:18.257Z,99.90
2024-04-26T07:45:45.714Z,99.90
2024-04-26T07:48:13.382Z,99.90
2024-04-26T07:50:43.318Z,99.90
2024-04-26T07:53:11.464Z,99.90
2024-04-26T07:55:40.746Z,99.90
2024-04-26T07:58:08.475Z,99.90
2024-04-26T08:00:36.197Z,99.90
2024-04-26T08:03:04.718Z,99.90
2024-04-26T08:05:32.362Z,99.90
2024-04-26T08:07:59.749Z,99.90
2024-04-26T08:10:27.055Z,99.90
2024-04-26T08:12:54.517Z,99.90
2024-04-26T08:15:22.431Z,99.90
2024-04-26T08:17:50.181Z,99.90
2024-04-26T08:20:17.916Z,99.90
2024-04-26T08:22:45.248Z,99.90
2024-04-26T08:25:19.567Z,99.90
2024-04-26T08:27:54.243Z,99.90
2024-04-26T08:30:22.139Z,99.90
2024-04-26T08:32:54.095Z,99.90
2024-04-26T08:35:27.473Z,99.90
2024-04-26T08:37:54.991Z,99.90
2024-04-26T08:40:22.587Z,99.90
2024-04-26T08:42:51.023Z,99.90
2024-04-26T08:45:21.485Z,99.90
2024-04-26T08:47:51.115Z,99.90
2024-04-26T08:50:21.384Z,99.90
2024-04-26T08:52:51.277Z,99.90
2024-04-26T08:55:18.686Z,99.90
2024-04-26T08:57:47.389Z,99.90
2024-04-26T09:00:15.065Z,99.90
2024-04-26T09:02:42.760Z,99.90
2024-04-26T09:05:15.539Z,99.90
2024-04-26T09:07:44.003Z,99.90
2024-04-26T09:10:11.874Z,99.90
2024-04-26T09:12:46.090Z,99.90
2024-04-26T09:15:22.923Z,99.90
2024-04-26T09:17:50.687Z,99.90
2024-04-26T09:20:18.577Z,99.90
2024-04-26T09:22:46.333Z,99.90
2024-04-26T09:25:13.660Z,99.90
2024-04-26T09:27:41.056Z,99.90
2024-04-26T09:30:09.035Z,99.90
2024-04-26T09:32:44.019Z,99.90
2024-04-26T09:35:23.081Z,99.90
2024-04-26T09:37:55.655Z,99.90
2024-04-26T09:40:23.974Z,99.90
2024-04-26T09:42:55.079Z,99.90
2024-04-26T09:45:23.862Z,99.90
2024-04-26T09:47:53.281Z,99.90
2024-04-26T09:50:21.472Z,99.90
2024-04-26T09:52:53.092Z,99.90
2024-04-26T09:55:25.799Z,99.90
2024-04-26T09:57:53.101Z,99.90
2024-04-26T10:00:21.870Z,99.90
2024-04-26T10:02:56.062Z,99.90
2024-04-26T10:05:24.323Z,99.90
2024-04-26T10:07:59.077Z,99.90
2024-04-26T10:10:34.487Z,99.90
2024-04-26T10:13:11.643Z,99.90
2024-04-26T10:15:39.414Z,99.90
2024-04-26T10:18:07.440Z,99.90
2024-04-26T10:20:47.914Z,99.90
2024-04-26T10:23:16.757Z,99.90
2024-04-26T10:25:44.787Z,99.90
2024-04-26T10:28:16.929Z,99.90
2024-04-26T10:30:54.096Z,99.90
2024-04-26T10:33:22.297Z,99.90
2024-04-26T10:35:51.484Z,99.90
2024-04-26T10:38:19.260Z,99.90
2024-04-26T10:40:47.789Z,99.90
2024-04-26T10:43:26.572Z,99.90
2024-04-26T10:45:55.887Z,99.70
2024-04-26T10:48:24.859Z,97.10
2024-04-26T10:51:08.081Z,97.20
2024-04-26T10:53:36.029Z,94.60
2024-04-26T10:56:04.823Z,95.60
2024-04-26T10:58:39.716Z,95.70
2024-04-26T11:01:25.106Z,96.00
2024-04-26T11:03:58.891Z,95.60
2024-04-26T11:06:32.584Z,95.40
2024-04-26T11:09:09.364Z,96.00
2024-04-26T11:11:37.472Z,96.90
2024-04-26T11:14:05.153Z,97.20
2024-04-26T11:16:33.071Z,97.60
2024-04-26T11:19:00.645Z,97.30
2024-04-26T11:21:29.748Z,94.90
2024-04-26T11:23:57.172Z,96.30
2024-04-26T11:26:24.464Z,96.10
2024-04-26T11:28:51.791Z,95.90
2024-04-26T11:31:19.171Z,95.60
2024-04-26T11:33:47.181Z,94.10
2024-04-26T11:36:17.251Z,92.00
2024-04-26T11:38:44.933Z,90.90
2024-04-26T11:41:13.270Z,92.40
2024-04-26T11:43:42.544Z,92.20
2024-04-26T11:46:09.960Z,92.70
2024-04-26T11:48:37.421Z,94.60
2024-04-26T11:51:05.130Z,94.00
2024-04-26T11:53:32.782Z,94.00
2024-04-26T11:56:01.338Z,95.40
2024-04-26T11:58:28.742Z,94.30
2024-04-26T12:00:56.124Z,94.30
2024-04-26T12:03:26.044Z,93.30
2024-04-26T12:05:53.972Z,93.60
2024-04-26T12:10:48.954Z,93.60
2024-04-26T12:13:16.632Z,94.20
2024-04-26T12:15:44.097Z,94.00
2024-04-26T12:18:12.195Z,93.60
2024-04-26T12:20:39.747Z,92.70
2024-04-26T12:23:07.464Z,93.00
2024-04-26T12:25:38.131Z,92.20
2024-04-26T12:28:07.102Z,91.40
2024-04-26T12:30:36.041Z,90.40
2024-04-26T12:33:05.308Z,90.20
2024-04-26T12:35:35.722Z,90.10
2024-04-26T12:38:03.480Z,90.20
2024-04-26T12:40:32.805Z,91.60
2024-04-26T12:43:01.550Z,91.20
2024-04-26T12:45:29.610Z,92.20
2024-04-26T12:47:57.402Z,93.00
2024-04-26T12:50:24.870Z,93.20
2024-04-26T12:52:52.369Z,94.00
2024-04-26T12:55:19.669Z,93.90
2024-04-26T12:57:47.526Z,94.60
2024-04-26T13:00:15.068Z,95.10
2024-04-26T13:02:42.807Z,98.70
2024-04-26T13:05:10.448Z,99.90
2024-04-26T13:07:38.160Z,99.90
2024-04-26T13:10:05.883Z,99.90
2024-04-26T13:12:39.645Z,99.90
2024-04-26T13:15:08.009Z,99.90
2024-04-26T13:17:36.007Z,99.90
2024-04-26T13:20:04.089Z,99.80
2024-04-26T13:22:31.667Z,99.90
2024-04-26T13:24:59.115Z,97.80
2024-04-26T13:27:27.846Z,93.70
2024-04-26T13:29:55.444Z,91.20
2024-04-26T13:32:23.350Z,88.60
2024-04-26T13:34:55.070Z,87.70
2024-04-26T13:37:22.395Z,86.00
2024-04-26T13:39:49.709Z,83.90
2024-04-26T13:42:17.239Z,83.90
2024-04-26T13:44:44.782Z,84.90
2024-04-26T13:47:12.135Z,82.70
2024-04-26T13:49:40.583Z,82.20
2024-04-26T13:52:08.191Z,82.80
2024-04-26T13:54:35.797Z,85.40
2024-04-26T13:57:03.464Z,89.40
2024-04-26T13:59:35.831Z,90.90
2024-04-26T14:02:03.559Z,91.40
2024-04-26T14:04:31.507Z,95.50
2024-04-26T14:07:00.045Z,94.10
2024-04-26T14:09:27.449Z,94.60
2024-04-26T14:11:54.874Z,92.90
2024-04-26T14:14:22.280Z,92.50
2024-04-26T14:16:49.670Z,90.50
2024-04-26T14:19:18.581Z,84.00
2024-04-26T14:21:46.116Z,78.20
2024-04-26T14:24:14.642Z,76.50
2024-04-26T14:26:42.622Z,74.90
2024-04-26T14:29:11.722Z,71.10
2024-04-26T14:31:39.211Z,74.00
2024-04-26T14:34:06.626Z,76.70
2024-04-26T14:36:34.245Z,79.40
2024-04-26T14:39:01.626Z,82.50
2024-04-26T14:41:29.381Z,81.60
2024-04-26T14:43:57.086Z,78.70
2024-04-26T14:46:24.581Z,78.90
2024-04-26T14:48:52.105Z,81.20
2024-04-26T14:51:19.601Z,85.20
2024-04-26T14:53:47.959Z,87.80
2024-04-26T14:56:15.388Z,90.30
2024-04-26T14:58:42.778Z,90.90
2024-04-26T15:01:10.349Z,91.30
2024-04-26T15:03:38.001Z,86.90
2024-04-26T15:06:05.653Z,83.20
2024-04-26T15:08:33.595Z,81.20
2024-04-26T15:11:00.971Z,76.20
2024-04-26T15:13:28.368Z,76.60
2024-04-26T15:15:55.772Z,79.40
2024-04-26T15:18:23.782Z,78.20
2024-04-26T15:20:51.150Z,80.70
2024-04-26T15:23:18.682Z,83.90
2024-04-26T15:25:47.438Z,86.50
2024-04-26T15:28:15.028Z,89.50
2024-04-26T15:30:42.754Z,91.40
2024-04-26T15:33:10.358Z,92.70
2024-04-26T15:35:37.825Z,94.30
2024-04-26T15:38:07.141Z,95.40
2024-04-26T15:40:34.821Z,97.90
2024-04-26T15:43:02.543Z,99.90
2024-04-26T15:45:29.990Z,99.90
2024-04-26T15:47:57.414Z,99.90
2024-04-26T15:50:25.218Z,99.90
2024-04-26T15:52:52.840Z,99.90
2024-04-26T15:55:20.237Z,99.90
2024-04-26T15:57:47.786Z,99.90
2024-04-26T16:00:16.207Z,99.90
2024-04-26T16:02:43.696Z,99.90
2024-04-26T16:05:11.646Z,99.90
2024-04-26T16:07:39.379Z,99.90
2024-04-26T16:10:07.119Z,99.90
2024-04-26T16:12:34.674Z,99.90
2024-04-26T16:15:02.108Z,99.90
2024-04-26T16:17:29.622Z,99.90
2024-04-26T16:19:57.141Z,99.90
2024-04-26T16:22:24.841Z,99.90
2024-04-26T16:24:52.256Z,99.90
2024-04-26T16:27:19.927Z,99.90
2024-04-26T16:29:47.309Z,99.90
2024-04-26T16:32:14.667Z,99.90
2024-04-26T16:34:42.179Z,99.90
2024-04-26T16:37:11.420Z,99.90
2024-04-26T16:39:41.510Z,99.90
2024-04-26T16:42:09.030Z,99.90
2024-04-26T16:44:36.501Z,99.90
2024-04-26T16:47:04.858Z,99.60
2024-04-26T16:49:32.618Z,99.90
2024-04-26T16:52:00.069Z,99.60
2024-04-26T16:54:27.459Z,99.90
2024-04-26T16:56:54.800Z,99.90
2024-04-26T16:59:24.069Z,99.90
2024-04-26T17:01:51.414Z,99.90
2024-04-26T17:04:18.794Z,99.90
2024-04-26T17:06:46.297Z,99.90
2024-04-26T17:09:13.708Z,99.90
2024-04-26T17:11:44.884Z,99.90
2024-04-26T17:14:12.450Z,99.90
2024-04-26T17:16:41.037Z,99.90
2024-04-26T17:19:08.711Z,99.90
2024-04-26T17:21:42.486Z,99.90
2024-04-26T17:24:10.103Z,99.90
2024-04-26T17:26:37.585Z,99.90
2024-04-26T17:29:05.116Z,99.90
2024-04-26T17:31:39.064Z,99.90
2024-04-26T17:34:06.395Z,99.90
2024-04-26T17:36:34.596Z,99.90
2024-04-26T17:39:01.964Z,99.90
2024-04-26T17:41:29.307Z,99.90
2024-04-26T17:43:56.962Z,99.90
2024-04-26T17:46:24.504Z,99.90
2024-04-26T17:48:51.961Z,99.90
2024-04-26T17:51:19.363Z,99.90
2024-04-26T17:53:46.724Z,99.90
2024-04-26T17:56:14.279Z,99.90
2024-04-26T17:58:41.725Z,99.90
2024-04-26T18:01:09.243Z,99.90
2024-04-26T18:03:36.717Z,99.90
2024-04-26T18:06:04.512Z,99.90
2024-04-26T18:08:31.919Z,99.90
2024-04-26T18:10:59.474Z,99.90
2024-04-26T18:13:28.854Z,99.90
2024-04-26T18:15:57.863Z,99.90
2024-04-26T18:18:28.339Z,99.90
2024-04-26T18:20:55.838Z,99.90
2024-04-26T18:23:25.228Z,99.90
2024-04-26T18:25:52.699Z,99.90
2024-04-26T18:28:20.029Z,99.90
2024-04-26T18:30:47.353Z,99.90
2024-04-26T18:33:15.250Z,99.90
2024-04-26T18:35:42.947Z,99.90
2024-04-26T18:38:10.249Z,99.90
2024-04-26T18:40:37.767Z,99.90
2024-04-26T18:43:05.348Z,99.90
2024-04-26T18:45:32.726Z,99.90
2024-04-26T18:48:00.490Z,99.90
2024-04-26T18:50:27.992Z,99.90
2024-04-26T18:52:55.481Z,99.90
2024-04-26T18:55:23.083Z,99.90
2024-04-26T18:57:51.295Z,99.90
2024-04-26T19:00:18.959Z,99.90
2024-04-26T19:02:47.964Z,99.90
2024-04-26T19:05:15.458Z,99.90
2024-04-26T19:07:44.090Z,99.90
2024-04-26T19:10:11.732Z,99.90
2024-04-26T19:12:40.431Z,99.90
2024-04-26T19:15:08.299Z,99.90
2024-04-26T19:17:36.230Z,99.90
2024-04-26T19:20:05.651Z,99.90
2024-04-26T19:22:33.396Z,99.90
2024-04-26T19:25:01.018Z,99.90
2024-04-26T19:27:29.263Z,99.90
2024-04-26T19:29:57.547Z,99.90
2024-04-26T19:32:27.000Z,99.90
2024-04-26T19:34:55.897Z,99.90
2024-04-26T19:37:23.390Z,99.90
2024-04-26T19:39:51.387Z,99.90
2024-04-26T19:42:18.571Z,99.90
2024-04-26T19:44:45.891Z,99.90
2024-04-26T19:47:14.758Z,99.90
2024-04-26T19:49:42.746Z,99.90
2024-04-26T19:52:30.686Z,99.90
2024-04-26T19:55:16.676Z,99.90
2024-04-26T19:57:44.390Z,99.90
2024-04-26T20:00:12.563Z,99.90
2024-04-26T20:02:39.946Z,99.90
2024-04-26T20:05:07.511Z,99.90
2024-04-26T20:07:34.965Z,99.90
2024-04-26T20:10:02.345Z,99.90
2024-04-26T20:12:32.198Z,99.90
2024-04-26T20:14:59.629Z,99.90
2024-04-26T20:17:27.320Z,99.90
2024-04-26T20:19:55.215Z,99.90
2024-04-26T20:22:24.439Z,99.90
2024-04-26T20:24:52.257Z,99.90
2024-04-26T20:27:19.667Z,99.90
2024-04-26T20:29:47.049Z,99.90
2024-04-26T20:32:14.607Z,99.90
2024-04-26T20:34:42.324Z,99.90
2024-04-26T20:37:09.707Z,99.90
2024-04-26T20:39:37.176Z,99.90
2024-04-26T20:42:04.872Z,99.90
2024-04-26T20:44:32.236Z,99.90
2024-04-26T20:46:59.708Z,99.90
2024-04-26T20:49:27.097Z,99.90
2024-04-26T20:51:55.685Z,99.90
2024-04-26T20:54:23.144Z,99.90
2024-04-26T20:56:50.647Z,99.90
2024-04-26T20:59:20.027Z,99.90
2024-04-26T21:01:47.421Z,99.90
2024-04-26T21:04:14.984Z,99.90
2024-04-26T21:06:42.591Z,99.90
2024-04-26T21:09:09.988Z,99.90
2024-04-26T21:11:37.329Z,99.90
2024-04-26T21:14:04.856Z,99.90
2024-04-26T21:16:32.327Z,99.90
2024-04-26T21:18:59.785Z,99.90
2024-04-26T21:21:29.232Z,99.90
2024-04-26T21:23:56.724Z,99.90
2024-04-26T21:26:36.570Z,99.90
2024-04-26T21:29:04.238Z,99.90
2024-04-26T21:31:32.040Z,99.90
2024-04-26T21:34:00.239Z,99.90
2024-04-26T21:36:29.679Z,99.90
2024-04-26T21:38:57.569Z,99.90
2024-04-26T21:41:26.022Z,99.90
2024-04-26T21:43:56.712Z,99.90
2024-04-26T21:46:25.780Z,99.90
2024-04-26T21:48:55.721Z,99.90
2024-04-26T21:51:24.432Z,99.90
2024-04-26T21:53:52.910Z,99.90
2024-04-26T21:56:22.213Z,99.90
2024-04-26T21:58:59.972Z,99.90
2024-04-26T22:01:38.009Z,99.90
2024-04-26T22:04:08.880Z,99.90
2024-04-26T22:06:40.583Z,99.90
2024-04-26T22:09:10.267Z,99.90
2024-04-26T22:11:39.604Z,99.90
2024-04-26T22:14:08.728Z,99.90
2024-04-26T22:16:37.776Z,99.90
2024-04-26T22:19:06.543Z,99.90
2024-04-26T22:21:36.216Z,99.90
2024-04-26T22:24:05.851Z,99.90
2024-04-26T22:26:35.262Z,99.90
2024-04-26T22:29:05.225Z,99.90
2024-04-26T22:31:42.554Z,99.90
2024-04-26T22:34:20.037Z,99.90
2024-04-26T22:36:57.750Z,99.90
2024-04-26T22:39:25.100Z,99.90
2024-04-26T22:41:52.451Z,99.90
2024-04-26T22:44:20.312Z,99.90
2024-04-26T22:46:47.832Z,99.90
2024-04-26T22:49:20.315Z,99.90
2024-04-26T22:51:52.120Z,99.90
2024-04-26T22:54:19.393Z,99.90
2024-04-26T22:56:46.981Z,99.90
2024-04-26T22:59:14.356Z,99.90
2024-04-26T23:01:41.662Z,99.90
2024-04-26T23:04:09.166Z,99.90
2024-04-26T23:06:36.709Z,99.90
2024-04-26T23:09:04.173Z,99.90
2024-04-26T23:11:35.406Z,99.90
2024-04-26T23:14:04.419Z,99.90
2024-04-26T23:16:35.626Z,99.90
2024-04-26T23:19:03.236Z,99.90
2024-04-26T23:21:30.566Z,99.90
2024-04-26T23:23:57.964Z,99.90
2024-04-26T23:26:25.863Z,99.90
2024-04-26T23:28:54.505Z,99.90
2024-04-26T23:31:21.938Z,99.90
2024-04-26T23:33:49.596Z,99.90
2024-04-26T23:36:17.079Z,99.90
2024-04-26T23:38:44.457Z,99.90
2024-04-26T23:41:11.888Z,99.90
2024-04-26T23:43:39.453Z,99.90
2024-04-26T23:46:06.977Z,99.90
2024-04-26T23:48:34.363Z,99.90
2024-04-26T23:51:01.675Z,99.90
2024-04-26T23:53:29.750Z,99.90
2024-04-26T23:55:57.214Z,99.90
2024-04-26T23:58:24.692Z,99.90
